Time;durP1;ratioP1;P1;durP2;ratioP2;P2;SDS_P1;SDS_P2;PMS_P1;PMS_P2;Temp;Humidity;BMP_temperature;BMP_pressure;BME280_temperature;BME280_humidity;BME280_pressure;Samples;Min_cycle;Max_cycle;Signal;HPM_P1;HPM_P2
2022/11/24 00:01:21;;;;;;;183.82;12.82;;;;;;;3.35;100.00;97617.09;4469197;32;20100;-75
2022/11/24 00:04:15;;;;;;;22.35;9.38;;;;;;;3.38;100.00;97613.44;4468870;32;20097;-75
2022/11/24 00:06:42;;;;;;;21.25;10.32;;;;;;;3.39;100.00;97617.66;4466474;32;20076;-75
2022/11/24 00:09:09;;;;;;;36.03;9.32;;;;;;;3.36;100.00;97615.31;4479782;32;20112;-75
2022/11/24 00:11:36;;;;;;;51.95;10.85;;;;;;;3.28;100.00;97615.09;4484845;31;20088;-75
2022/11/24 00:14:04;;;;;;;28.73;10.80;;;;;;;3.26;100.00;97620.41;4484408;31;20092;-75
2022/11/24 00:16:34;;;;;;;29.83;12.43;;;;;;;3.29;100.00;97620.16;4484360;31;20520;-75
2022/11/24 00:19:03;;;;;;;32.05;12.65;;;;;;;3.23;100.00;97619.81;4484403;32;20518;-75
2022/11/24 00:21:30;;;;;;;31.90;13.57;;;;;;;3.20;100.00;97620.88;4471627;31;20118;-75
2022/11/24 00:23:58;;;;;;;55.47;14.70;;;;;;;3.26;100.00;97629.94;4468923;32;20108;-75
2022/11/24 00:26:30;;;;;;;33.45;11.85;;;;;;;3.18;100.00;97630.53;4468309;32;20093;-75
2022/11/24 00:29:00;;;;;;;39.88;14.32;;;;;;;3.23;100.00;97631.00;4468615;32;20085;-75
2022/11/24 00:31:29;;;;;;;37.22;13.75;;;;;;;3.19;100.00;97629.56;4468448;32;20149;-75
2022/11/24 00:33:59;;;;;;;80.57;16.27;;;;;;;3.20;100.00;97636.41;4468474;32;20379;-75
2022/11/24 00:36:28;;;;;;;263.40;22.75;;;;;;;3.21;100.00;97640.66;4468484;32;20112;-75
2022/11/24 00:38:57;;;;;;;289.27;26.62;;;;;;;3.15;100.00;97639.34;4468411;32;20115;-75
2022/11/24 00:41:25;;;;;;;279.80;25.33;;;;;;;3.19;100.00;97647.69;4469163;32;20524;-75
2022/11/24 00:43:53;;;;;;;198.23;25.05;;;;;;;3.22;100.00;97647.44;4470387;32;20107;-74
2022/11/24 00:46:21;;;;;;;173.45;21.92;;;;;;;3.18;100.00;97648.66;4470489;32;20088;-75
2022/11/24 00:48:48;;;;;;;99.87;21.30;;;;;;;3.12;100.00;97644.75;4470708;32;20115;-74
2022/11/24 00:51:17;;;;;;;63.28;22.40;;;;;;;3.09;100.00;97654.50;4470384;32;20112;-74
2022/11/24 00:53:44;;;;;;;67.75;22.37;;;;;;;3.11;100.00;97652.63;4470571;32;20484;-74
2022/11/24 00:56:12;;;;;;;63.00;21.27;;;;;;;3.13;100.00;97661.09;4470190;32;20101;-75
2022/11/24 00:58:39;;;;;;;85.85;20.67;;;;;;;3.10;100.00;97666.50;4470380;32;20152;-74
2022/11/24 01:01:10;;;;;;;155.05;24.37;;;;;;;3.12;100.00;97664.62;4470359;32;20510;-74
2022/11/24 01:03:38;;;;;;;147.05;24.27;;;;;;;3.09;100.00;97670.88;4470453;32;20604;-75
2022/11/24 01:06:08;;;;;;;242.73;26.17;;;;;;;3.07;100.00;97671.91;4470432;32;20116;-74
2022/11/24 01:08:36;;;;;;;276.50;28.20;;;;;;;3.02;100.00;97673.09;4477671;32;20467;-74
2022/11/24 01:11:17;;;;;;;296.60;28.48;;;;;;;3.06;100.00;97672.84;4485965;31;20490;-74
2022/11/24 01:13:48;;;;;;;253.68;27.42;;;;;;;3.04;100.00;97675.56;4486060;31;20425;-74
2022/11/24 01:16:24;;;;;;;181.10;24.85;;;;;;;3.04;100.00;97674.75;4485871;31;20088;-74
2022/11/24 01:18:52;;;;;;;201.02;27.75;;;;;;;3.03;100.00;97679.09;4485893;32;20144;-74
2022/11/24 01:21:20;;;;;;;139.77;27.35;;;;;;;2.95;100.00;97674.50;4474402;31;20466;-74
2022/11/24 01:23:47;;;;;;;147.40;25.77;;;;;;;2.92;100.00;97669.56;4470186;32;20107;-75
2022/11/24 01:26:16;;;;;;;129.15;28.55;;;;;;;2.97;100.00;97670.03;4469971;32;20088;-75
2022/11/24 01:28:44;;;;;;;76.45;24.45;;;;;;;2.95;100.00;97676.25;4470237;32;20092;-74
2022/11/24 01:31:14;;;;;;;76.22;23.98;;;;;;;2.98;100.00;97671.69;4469982;32;20123;-74
2022/11/24 01:33:41;;;;;;;82.57;23.85;;;;;;;2.98;100.00;97674.28;4470278;32;20191;-74
2022/11/24 01:36:09;;;;;;;74.57;23.67;;;;;;;2.95;100.00;97679.69;4470196;32;20544;-75
2022/11/24 01:38:36;;;;;;;104.15;26.00;;;;;;;2.96;100.00;97673.56;4470274;32;20085;-74
2022/11/24 01:41:18;;;;;;;95.20;24.17;;;;;;;2.97;100.00;97672.62;4469923;32;20119;-75
2022/11/24 01:43:46;;;;;;;71.20;23.60;;;;;;;2.96;100.00;97678.72;4470090;32;20494;-74
2022/11/24 01:46:19;;;;;;;61.72;22.95;;;;;;;2.92;100.00;97671.31;4470002;32;20913;-75
2022/11/24 01:48:56;;;;;;;63.83;22.13;;;;;;;2.90;100.00;97673.22;4469995;32;20148;-75
2022/11/24 01:51:25;;;;;;;63.97;22.87;;;;;;;2.93;100.00;97680.72;4469673;32;20100;-75
2022/11/24 01:54:00;;;;;;;62.33;21.20;;;;;;;2.96;100.00;97673.56;4468781;32;20131;-74
2022/11/24 01:56:27;;;;;;;51.70;20.67;;;;;;;2.98;100.00;97673.44;4468674;32;20107;-75
2022/11/24 01:58:56;;;;;;;58.13;22.77;;;;;;;2.96;100.00;97676.13;4470025;32;20481;-74
2022/11/24 02:01:24;;;;;;;61.28;20.42;;;;;;;3.00;100.00;97679.34;4469835;32;20115;-74
2022/11/24 02:03:51;;;;;;;59.78;20.67;;;;;;;3.02;100.00;97680.03;4468968;32;20676;-74
2022/11/24 02:06:22;;;;;;;62.13;21.55;;;;;;;2.98;100.00;97684.63;4469780;32;20138;-75
2022/11/24 02:09:10;;;;;;;53.10;20.52;;;;;;;2.99;100.00;97673.31;4468739;32;20108;-74
2022/11/24 02:11:38;;;;;;;59.50;20.83;;;;;;;2.99;100.00;97673.31;4468634;32;20147;-75
2022/11/24 02:14:08;;;;;;;62.65;21.62;;;;;;;3.01;100.00;97683.56;4468668;32;20101;-74
2022/11/24 02:16:36;;;;;;;57.25;20.95;;;;;;;2.99;100.00;97675.09;4468470;32;20586;-75
2022/11/24 02:19:10;;;;;;;62.58;23.45;;;;;;;2.98;100.00;97674.28;4468530;32;20504;-74
2022/11/24 02:21:37;;;;;;;51.67;20.25;;;;;;;2.92;100.00;97671.31;4482906;32;20100;-75
2022/11/24 02:24:17;;;;;;;58.20;22.08;;;;;;;2.88;100.00;97675.91;4484233;32;20118;-74
2022/11/24 02:26:46;;;;;;;57.78;22.05;;;;;;;2.86;100.00;97684.72;4484139;32;20080;-75
2022/11/24 02:29:19;;;;;;;52.53;19.67;;;;;;;2.87;100.00;97676.84;4485960;31;20481;-75
2022/11/24 02:31:58;;;;;;;72.30;24.25;;;;;;;2.88;100.00;97680.25;4485312;31;20144;-75
2022/11/24 02:34:26;;;;;;;57.50;20.95;;;;;;;2.87;100.00;97682.00;4485762;31;20200;-75
2022/11/24 02:36:53;;;;;;;51.30;21.08;;;;;;;2.88;100.00;97677.66;4485353;31;20208;-75
2022/11/24 02:39:20;;;;;;;54.55;23.00;;;;;;;2.83;100.00;97696.94;4485667;32;20470;-74
2022/11/24 02:41:53;;;;;;;59.47;21.33;;;;;;;2.84;100.00;97687.41;4485278;31;20859;-74
2022/11/24 02:44:23;;;;;;;59.95;22.30;;;;;;;2.77;100.00;97684.47;4485558;31;20102;-74
2022/11/24 02:47:07;;;;;;;61.63;22.50;;;;;;;2.81;100.00;97687.66;4483961;32;20111;-75
2022/11/24 02:49:34;;;;;;;65.28;22.42;;;;;;;2.76;100.00;97685.41;4485366;31;20081;-74
2022/11/24 02:52:02;;;;;;;61.00;22.50;;;;;;;2.78;100.00;97675.75;4485000;31;20123;-75
2022/11/24 02:54:30;;;;;;;59.85;23.85;;;;;;;2.76;100.00;97676.84;4485268;31;20114;-74
2022/11/24 02:56:57;;;;;;;48.10;20.67;;;;;;;2.71;100.00;97677.19;4485238;31;20477;-74
2022/11/24 02:59:25;;;;;;;60.85;22.08;;;;;;;2.70;100.00;97675.53;4485270;32;20120;-74
2022/11/24 03:01:52;;;;;;;73.00;25.62;;;;;;;2.67;100.00;97684.31;4485068;31;20167;-75
2022/11/24 03:04:19;;;;;;;65.25;22.92;;;;;;;2.67;100.00;97681.75;4484320;31;20092;-74
2022/11/24 03:06:46;;;;;;;49.70;19.92;;;;;;;2.66;100.00;97685.28;4485155;32;20155;-75
2022/11/24 03:09:13;;;;;;;51.83;19.05;;;;;;;2.66;100.00;97671.50;4473901;31;20112;-75
2022/11/24 03:11:40;;;;;;;46.58;18.92;;;;;;;2.63;100.00;97682.94;4469539;32;20160;-75
2022/11/24 03:14:07;;;;;;;63.17;22.00;;;;;;;2.64;100.00;97687.12;4469352;32;20176;-74
2022/11/24 03:16:35;;;;;;;54.97;21.45;;;;;;;2.63;100.00;97693.28;4469588;32;20092;-75
2022/11/24 03:19:02;;;;;;;55.15;21.65;;;;;;;2.62;100.00;97699.37;4469420;32;20412;-75
2022/11/24 03:21:30;;;;;;;46.85;19.60;;;;;;;2.59;100.00;97696.16;4481848;32;20105;-75
2022/11/24 03:23:57;;;;;;;58.83;24.02;;;;;;;2.61;100.00;97696.91;4485082;31;20084;-75
2022/11/24 03:26:25;;;;;;;59.38;22.95;;;;;;;2.55;100.00;97694.78;4485080;31;20119;-75
2022/11/24 03:28:54;;;;;;;60.12;23.65;;;;;;;2.49;100.00;97693.44;4485207;31;20164;-74
2022/11/24 03:31:22;;;;;;;50.60;21.25;;;;;;;2.49;100.00;97696.03;4485287;31;20175;-75
2022/11/24 03:33:49;;;;;;;46.10;19.15;;;;;;;2.49;100.00;97683.09;4484946;31;20096;-74
2022/11/24 03:36:17;;;;;;;42.80;17.60;;;;;;;2.46;100.00;97683.34;4485228;31;20100;-75
2022/11/24 03:38:44;;;;;;;55.22;17.95;;;;;;;2.46;100.00;97688.50;4484883;31;20101;-75
2022/11/24 03:41:11;;;;;;;48.70;20.08;;;;;;;2.45;100.00;97685.09;4484977;32;20112;-75
2022/11/24 03:43:39;;;;;;;54.72;20.75;;;;;;;2.43;100.00;97691.31;4484765;31;20593;-75
2022/11/24 03:46:11;;;;;;;59.40;21.45;;;;;;;2.42;100.00;97682.75;4484949;32;20073;-75
2022/11/24 03:48:38;;;;;;;50.33;19.20;;;;;;;2.40;100.00;97694.13;4485114;31;20112;-75
2022/11/24 03:51:06;;;;;;;58.72;22.05;;;;;;;2.41;100.00;97700.97;4484830;31;20123;-75
2022/11/24 03:53:33;;;;;;;58.03;21.05;;;;;;;2.32;100.00;97694.69;4484845;31;20081;-74
2022/11/24 03:56:00;;;;;;;58.55;20.73;;;;;;;2.35;100.00;97698.78;4484682;31;20126;-74
2022/11/24 03:58:29;;;;;;;57.58;20.75;;;;;;;2.36;100.00;97706.44;4484598;31;20499;-74
2022/11/24 04:00:56;;;;;;;53.10;20.05;;;;;;;2.37;100.00;97704.69;4484721;31;20096;-75
2022/11/24 04:03:24;;;;;;;51.85;21.62;;;;;;;2.44;100.00;97709.28;4484537;31;20925;-74
2022/11/24 04:05:51;;;;;;;54.35;21.23;;;;;;;2.45;100.00;97712.69;4484677;31;20093;-74
2022/11/24 04:08:18;;;;;;;52.40;20.58;;;;;;;2.43;100.00;97706.81;4479266;31;20458;-74
2022/11/24 04:10:52;;;;;;;57.95;21.42;;;;;;;2.40;100.00;97707.06;4468837;32;20133;-75
2022/11/24 04:13:23;;;;;;;53.87;19.77;;;;;;;2.37;100.00;97710.69;4468769;32;20093;-75
2022/11/24 04:15:50;;;;;;;65.97;21.85;;;;;;;2.38;100.00;97716.69;4469937;32;20105;-75
2022/11/24 04:18:18;;;;;;;66.62;23.62;;;;;;;2.37;100.00;97709.88;4470657;32;20092;-75
2022/11/24 04:20:48;;;;;;;66.07;20.80;;;;;;;2.35;100.00;97729.81;4478353;32;20532;-75
2022/11/24 04:23:15;;;;;;;57.35;19.95;;;;;;;2.35;100.00;97737.56;4486092;31;20114;-75
2022/11/24 04:25:42;;;;;;;69.15;22.10;;;;;;;2.38;100.00;97729.63;4486194;31;20460;-75
2022/11/24 04:28:10;;;;;;;66.97;20.95;;;;;;;2.37;100.00;97743.47;4486277;32;20096;-75
2022/11/24 04:30:43;;;;;;;67.37;23.35;;;;;;;2.38;100.00;97740.75;4486372;31;20144;-74
2022/11/24 04:33:10;;;;;;;60.20;20.62;;;;;;;2.30;100.00;97741.31;4486285;31;20084;-74
2022/11/24 04:35:37;;;;;;;62.03;21.23;;;;;;;2.30;100.00;97743.06;4486218;31;20172;-74
2022/11/24 04:38:04;;;;;;;60.95;19.40;;;;;;;2.23;100.00;97750.44;4486236;31;20449;-74
2022/11/24 04:40:32;;;;;;;62.42;22.30;;;;;;;2.27;100.00;97757.06;4486455;31;20114;-74
2022/11/24 04:42:58;;;;;;;69.15;23.90;;;;;;;2.24;100.00;97761.59;4486170;31;20567;-75
2022/11/24 04:45:26;;;;;;;53.58;19.08;;;;;;;2.22;100.00;97759.13;4486524;32;20112;-75
2022/11/24 04:47:53;;;;;;;68.35;21.80;;;;;;;2.27;100.00;97774.28;4486068;31;20135;-75
2022/11/24 04:50:20;;;;;;;59.05;21.52;;;;;;;2.29;100.00;97785.38;4486290;31;20528;-75
2022/11/24 04:52:47;;;;;;;64.65;22.75;;;;;;;2.26;100.00;97791.56;4486251;32;20104;-75
2022/11/24 04:55:14;;;;;;;59.10;19.98;;;;;;;2.22;100.00;97790.13;4485995;31;20163;-75
2022/11/24 04:57:41;;;;;;;64.62;23.00;;;;;;;2.20;100.00;97791.19;4486185;31;20092;-75
2022/11/24 05:00:09;;;;;;;55.92;20.45;;;;;;;2.22;100.00;97800.47;4486080;32;20115;-75
2022/11/24 05:02:36;;;;;;;62.30;22.20;;;;;;;2.23;100.00;97796.94;4486292;31;20175;-75
2022/11/24 05:05:05;;;;;;;63.33;21.67;;;;;;;2.29;100.00;97801.69;4485911;31;20476;-75
2022/11/24 05:07:33;;;;;;;65.65;20.60;;;;;;;2.23;100.00;97801.31;4486049;31;20108;-75
2022/11/24 05:12:54;;;;;;;62.67;21.23;;;;;;;2.23;100.00;97794.38;4470656;32;20127;-75
2022/11/24 05:15:21;;;;;;;53.90;19.33;;;;;;;2.24;100.00;97798.63;4469518;32;20344;-75
2022/11/24 05:17:48;;;;;;;58.15;20.08;;;;;;;2.28;100.00;97801.78;4476125;32;20917;-75
2022/11/24 05:20:17;;;;;;;59.53;22.08;;;;;;;2.25;100.00;97808.00;4481874;31;20121;-76
2022/11/24 05:22:44;;;;;;;56.90;18.87;;;;;;;2.26;100.00;97807.06;4476630;32;20096;-76
2022/11/24 05:25:12;;;;;;;64.20;19.73;;;;;;;2.28;100.00;97809.53;4482013;31;20108;-76
2022/11/24 05:27:39;;;;;;;59.83;19.05;;;;;;;2.26;100.00;97801.91;4474930;32;20122;-76
2022/11/24 05:30:07;;;;;;;65.45;21.37;;;;;;;2.28;100.00;97814.72;4477545;32;20149;-74
2022/11/24 05:32:35;;;;;;;59.45;20.25;;;;;;;2.30;100.00;97808.50;4479164;32;20905;-76
2022/11/24 05:35:03;;;;;;;64.12;21.37;;;;;;;2.33;100.00;97812.63;4483457;31;20096;-76
2022/11/24 05:37:30;;;;;;;55.22;18.85;;;;;;;2.37;100.00;97808.06;4483813;31;20147;-76
2022/11/24 05:39:57;;;;;;;51.95;17.60;;;;;;;2.42;100.00;97811.16;4483348;31;20099;-77
2022/11/24 05:45:21;;;;;;;57.08;18.33;;;;;;;2.46;100.00;97808.22;4425294;32;20156;-77
2022/11/24 05:47:49;;;;;;;45.15;18.60;;;;;;;2.55;100.00;97804.16;4433397;32;20574;-77
2022/11/24 05:50:18;;;;;;;46.75;16.58;;;;;;;2.60;100.00;97814.16;4432035;32;20125;-75
2022/11/24 05:52:45;;;;;;;47.42;17.58;;;;;;;2.61;100.00;97821.00;4432620;32;20168;-76
2022/11/24 05:55:18;;;;;;;51.15;18.30;;;;;;;2.61;100.00;97808.88;4434933;32;20115;-77
2022/11/24 05:57:45;;;;;;;50.03;18.48;;;;;;;2.60;100.00;97817.56;4434705;32;20536;-75
2022/11/24 06:00:13;;;;;;;54.72;18.83;;;;;;;2.62;100.00;97820.91;4435964;32;20117;-76
2022/11/24 06:02:41;;;;;;;43.03;17.17;;;;;;;2.61;100.00;97827.00;4436218;32;20105;-77
2022/11/24 06:05:08;;;;;;;42.22;16.40;;;;;;;2.62;100.00;97825.22;4435915;32;20162;-76
2022/11/24 06:07:35;;;;;;;46.58;18.75;;;;;;;2.68;100.00;97837.75;4436072;32;20113;-76
2022/11/24 06:10:03;;;;;;;50.22;16.92;;;;;;;2.66;100.00;97845.59;4435691;32;20503;-76
2022/11/24 06:12:30;;;;;;;50.30;16.60;;;;;;;2.68;100.00;97848.06;4436473;32;20726;-77
2022/11/24 06:14:57;;;;;;;46.75;17.10;;;;;;;2.65;100.00;97849.13;4436134;32;20105;-76
2022/11/24 06:17:24;;;;;;;42.70;15.82;;;;;;;2.68;100.00;97855.84;4436180;32;20153;-76
2022/11/24 06:19:51;;;;;;;52.20;17.87;;;;;;;2.67;100.00;97862.75;4437546;32;20160;-76
2022/11/24 06:22:18;;;;;;;50.53;17.90;;;;;;;2.63;100.00;97866.50;4463374;32;20096;-77
2022/11/24 06:24:46;;;;;;;56.22;20.65;;;;;;;2.66;100.00;97871.47;4479372;32;20206;-80
2022/11/24 06:27:13;;;;;;;50.65;18.27;;;;;;;2.62;100.00;97870.03;4485345;32;20097;-79
2022/11/24 06:29:40;;;;;;;61.05;17.35;;;;;;;2.61;100.00;97883.06;4483956;32;20162;-78
2022/11/24 06:32:07;;;;;;;48.22;16.90;;;;;;;2.55;100.00;97886.09;4485052;31;20619;-79
2022/11/24 06:34:35;;;;;;;49.45;19.12;;;;;;;2.58;100.00;97886.69;4485046;31;20152;-79
2022/11/24 06:37:02;;;;;;;40.40;15.70;;;;;;;2.60;100.00;97892.56;4483423;31;20104;-81
2022/11/24 06:39:30;;;;;;;52.97;18.77;;;;;;;2.64;100.00;97896.59;4483227;31;20108;-78
2022/11/24 06:41:57;;;;;;;51.20;17.70;;;;;;;2.66;100.00;97907.66;4484841;31;20092;-79
2022/11/24 06:44:24;;;;;;;48.28;18.17;;;;;;;2.70;100.00;97910.03;4484931;31;20144;-78
2022/11/24 06:46:51;;;;;;;58.10;18.33;;;;;;;2.69;100.00;97909.19;4485050;31;20157;-78
2022/11/24 06:49:18;;;;;;;47.80;18.02;;;;;;;2.73;100.00;97909.81;4484750;31;20100;-78
2022/11/24 06:51:45;;;;;;;54.47;18.10;;;;;;;2.83;100.00;97913.37;4485009;31;20515;-78
2022/11/24 06:54:14;;;;;;;60.05;18.45;;;;;;;2.89;100.00;97923.28;4480435;31;20123;-79
2022/11/24 06:56:41;;;;;;;56.03;19.10;;;;;;;2.96;100.00;97923.69;4473972;32;20434;-80
2022/11/24 06:59:16;;;;;;;47.72;18.08;;;;;;;2.96;100.00;97916.75;4484359;32;20190;-79
2022/11/24 07:01:43;;;;;;;45.72;16.45;;;;;;;3.03;100.00;97924.91;4484709;31;20869;-79
2022/11/24 07:04:10;;;;;;;45.53;15.95;;;;;;;3.08;100.00;97940.09;4484952;31;20098;-79
2022/11/24 07:06:40;;;;;;;56.13;17.45;;;;;;;3.18;100.00;97928.16;4484395;31;20105;-79
2022/11/24 07:09:08;;;;;;;48.72;16.62;;;;;;;3.26;100.00;97943.94;4475154;31;20180;-78
2022/11/24 07:11:35;;;;;;;40.85;18.23;;;;;;;3.21;100.00;97940.88;4462397;32;20100;-79
2022/11/24 07:14:03;;;;;;;49.47;17.83;;;;;;;3.25;100.00;97942.28;4480527;32;20230;-77
2022/11/24 07:16:32;;;;;;;47.25;17.42;;;;;;;3.22;100.00;97950.25;4477212;32;20100;-79
2022/11/24 07:18:59;;;;;;;40.95;17.20;;;;;;;3.28;100.00;97949.81;4481619;32;20103;-77
2022/11/24 07:21:27;;;;;;;40.58;16.98;;;;;;;3.32;100.00;97953.03;4482596;31;20191;-77
2022/11/24 07:23:56;;;;;;;46.00;16.80;;;;;;;3.32;100.00;97955.63;4481129;31;20144;-79
2022/11/24 07:26:24;;;;;;;46.67;16.85;;;;;;;3.36;100.00;97947.50;4475333;32;20115;-80
2022/11/24 07:28:51;;;;;;;40.67;16.00;;;;;;;3.40;100.00;97937.75;4484234;31;20084;-79
2022/11/24 07:31:20;;;;;;;52.10;18.20;;;;;;;3.44;100.00;97959.91;4475863;31;20092;-78
2022/11/24 07:33:48;;;;;;;49.00;16.12;;;;;;;3.42;100.00;97956.56;4480280;31;20088;-78
2022/11/24 07:36:15;;;;;;;44.25;18.23;;;;;;;3.43;100.00;97957.41;4477790;32;20465;-76
2022/11/24 07:38:43;;;;;;;46.42;16.00;;;;;;;3.49;100.00;97962.16;4483452;31;20464;-77
2022/11/24 07:41:11;;;;;;;42.62;15.77;;;;;;;3.54;100.00;97955.69;4475194;32;20097;-77
2022/11/24 07:43:38;;;;;;;37.72;15.70;;;;;;;3.57;100.00;97954.62;4476875;32;20106;-78
2022/11/24 07:46:09;;;;;;;43.95;17.17;;;;;;;3.58;100.00;97965.84;4480596;31;20150;-77
2022/11/24 07:48:36;;;;;;;42.67;15.27;;;;;;;3.51;100.00;97965.44;4484490;31;20108;-75
2022/11/24 07:51:04;;;;;;;49.92;17.92;;;;;;;3.47;100.00;97961.44;4479379;31;20097;-78
2022/11/24 07:53:32;;;;;;;43.72;18.00;;;;;;;3.51;100.00;97960.25;4482055;31;20144;-78
2022/11/24 07:56:01;;;;;;;42.72;17.33;;;;;;;3.48;100.00;97970.84;4483906;31;20096;-75
2022/11/24 07:58:29;;;;;;;45.75;18.48;;;;;;;3.50;100.00;97971.56;4480227;31;80602;-79
2022/11/24 08:01:08;;;;;;;51.33;19.15;;;;;;;3.50;100.00;97963.81;4479397;32;20608;-77
2022/11/24 08:03:36;;;;;;;55.38;17.30;;;;;;;3.56;100.00;97968.53;4478709;32;20426;-76
2022/11/24 08:06:03;;;;;;;48.58;18.67;;;;;;;3.55;100.00;97962.50;4483052;31;20093;-78
2022/11/24 08:08:50;;;;;;;46.05;16.92;;;;;;;3.58;100.00;97958.87;4482464;31;20197;-78
2022/11/24 08:11:17;;;;;;;55.60;19.05;;;;;;;3.54;100.00;97965.22;4482890;32;20096;-79
2022/11/24 08:13:45;;;;;;;54.17;18.90;;;;;;;3.51;100.00;97971.47;4481921;32;20160;-76
2022/11/24 08:16:14;;;;;;;45.65;18.12;;;;;;;3.54;100.00;97991.09;4478751;31;20498;-76
2022/11/24 08:18:42;;;;;;;42.60;15.38;;;;;;;3.45;100.00;97981.41;4483404;31;20123;-78
2022/11/24 08:21:12;;;;;;;49.03;18.35;;;;;;;3.50;100.00;97974.97;4479839;31;20099;-76
2022/11/24 08:23:40;;;;;;;51.08;19.70;;;;;;;3.47;100.00;97990.75;4480901;32;20122;-76
2022/11/24 08:26:14;;;;;;;57.42;20.42;;;;;;;3.41;100.00;97983.41;4481117;31;20246;-76
2022/11/24 08:28:42;;;;;;;59.92;20.27;;;;;;;3.49;100.00;97993.22;4470168;32;20565;-76
2022/11/24 08:31:11;;;;;;;52.95;19.05;;;;;;;3.44;100.00;97997.91;4478814;32;20096;-76
2022/11/24 08:33:39;;;;;;;45.75;18.15;;;;;;;3.49;100.00;97993.22;4481296;31;20139;-80
2022/11/24 08:36:09;;;;;;;47.55;17.65;;;;;;;3.48;100.00;98007.09;4483699;31;20127;-75
2022/11/24 08:38:36;;;;;;;51.22;19.65;;;;;;;3.50;100.00;98005.22;4484013;31;20151;-76
2022/11/24 08:41:05;;;;;;;46.78;16.80;;;;;;;3.56;100.00;97994.44;4483144;31;20156;-75
2022/11/24 08:43:33;;;;;;;51.13;19.02;;;;;;;3.57;100.00;98001.25;4482452;31;20097;-76
2022/11/24 08:46:03;;;;;;;47.45;18.12;;;;;;;3.62;100.00;98008.66;4483636;31;20115;-76
2022/11/24 08:48:31;;;;;;;46.30;15.88;;;;;;;3.59;100.00;98003.72;4469586;31;20116;-75
2022/11/24 08:51:08;;;;;;;45.15;15.60;;;;;;;3.61;100.00;98004.44;4466628;32;20116;-77
2022/11/24 08:53:35;;;;;;;48.13;18.48;;;;;;;3.60;100.00;98003.59;4467577;32;20080;-76
2022/11/24 08:56:03;;;;;;;43.45;15.95;;;;;;;3.59;100.00;98001.97;4469299;32;20097;-75
2022/11/24 08:58:31;;;;;;;46.83;17.27;;;;;;;3.59;100.00;98003.72;4482190;31;20152;-76
2022/11/24 09:01:09;;;;;;;46.13;16.58;;;;;;;3.56;100.00;97999.59;4482315;31;20123;-79
2022/11/24 09:03:38;;;;;;;47.22;16.80;;;;;;;3.53;100.00;97999.84;4485396;31;20081;-77
2022/11/24 09:06:10;;;;;;;52.15;15.88;;;;;;;3.53;100.00;98002.41;4483189;31;20120;-76
2022/11/24 09:08:38;;;;;;;39.13;16.17;;;;;;;3.50;100.00;98007.81;4480680;31;20214;-77
2022/11/24 09:11:07;;;;;;;37.97;14.63;;;;;;;3.50;100.00;98010.41;4481141;32;20096;-78
2022/11/24 09:13:35;;;;;;;43.47;17.45;;;;;;;3.53;100.00;98020.56;4483292;31;20080;-76
2022/11/24 09:16:03;;;;;;;41.55;15.20;;;;;;;3.51;100.00;98018.06;4484074;31;20521;-76
2022/11/24 09:18:31;;;;;;;52.28;18.05;;;;;;;3.54;100.00;98017.84;4484858;31;20981;-77
2022/11/24 09:21:12;;;;;;;44.20;17.23;;;;;;;3.56;100.00;98028.09;4481882;31;20172;-77
2022/11/24 09:23:40;;;;;;;40.55;14.20;;;;;;;3.56;100.00;98025.50;4482955;31;20092;-78
2022/11/24 09:26:13;;;;;;;49.65;17.52;;;;;;;3.62;100.00;98035.41;4483264;31;20633;-76
2022/11/24 09:28:40;;;;;;;39.30;15.05;;;;;;;3.69;100.00;98035.78;4485572;31;20092;-77
2022/11/24 09:31:10;;;;;;;45.22;16.80;;;;;;;3.71;100.00;98037.34;4485079;31;20147;-77
2022/11/24 09:33:38;;;;;;;45.97;16.73;;;;;;;3.77;100.00;98036.06;4484399;31;20517;-77
2022/11/24 09:36:06;;;;;;;45.63;15.57;;;;;;;3.78;100.00;98040.28;4480469;31;20135;-78
2022/11/24 09:38:34;;;;;;;48.72;16.73;;;;;;;3.81;100.00;98039.25;4480273;31;20119;-80
2022/11/24 09:41:47;;;;;;;43.95;14.77;;;;;;;3.94;100.00;98039.16;4480328;31;20084;-77
2022/11/24 09:44:32;;;;;;;47.40;15.38;;;;;;;4.01;100.00;98041.22;4483728;32;20093;-79
2022/11/24 09:47:09;;;;;;;44.72;15.57;;;;;;;4.05;100.00;98044.38;4484364;32;20089;-77
2022/11/24 09:50:08;;;;;;;43.05;15.73;;;;;;;4.18;100.00;98039.09;4483541;32;20127;-79
2022/11/24 09:52:52;;;;;;;38.35;14.27;;;;;;;4.29;100.00;98046.91;4432145;32;20132;-78
2022/11/24 09:55:28;;;;;;;41.00;14.50;;;;;;;4.35;100.00;98035.25;4433262;32;20109;-78
2022/11/24 09:58:16;;;;;;;34.33;13.62;;;;;;;4.40;100.00;98051.28;4433763;32;20163;-79
2022/11/24 10:00:46;;;;;;;32.00;13.62;;;;;;;4.41;100.00;98046.00;4434286;32;20431;-80
2022/11/24 10:03:26;;;;;;;34.25;12.95;;;;;;;4.49;100.00;98054.97;4417387;32;20211;-78
2022/11/24 10:05:54;;;;;;;40.88;14.73;;;;;;;4.40;100.00;98054.69;4417665;32;20125;-77
2022/11/24 10:08:31;;;;;;;30.27;12.60;;;;;;;4.52;100.00;98063.31;4429829;32;20156;-78
2022/11/24 10:11:00;;;;;;;29.70;11.88;;;;;;;4.49;100.00;98058.37;4424846;32;20184;-79
2022/11/24 10:13:52;;;;;;;49.45;15.75;;;;;;;4.63;100.00;98057.31;4410430;32;20113;-79
2022/11/24 10:16:26;;;;;;;38.05;14.77;;;;;;;4.61;100.00;98062.63;4422178;32;20122;-77
2022/11/24 10:18:56;;;;;;;34.35;14.20;;;;;;;4.71;100.00;98059.31;4429976;32;20215;-77
2022/11/24 10:21:34;;;;;;;35.10;13.13;;;;;;;4.73;100.00;98058.28;4424099;32;20175;-76
2022/11/24 10:24:06;;;;;;;28.92;11.57;;;;;;;4.84;100.00;98065.22;4417752;32;20201;-79
2022/11/24 10:26:36;;;;;;;32.17;12.93;;;;;;;4.94;100.00;98068.75;4428030;32;20137;-79
2022/11/24 10:29:17;;;;;;;35.55;11.43;;;;;;;5.17;100.00;98062.75;4471070;32;20100;-77
2022/11/24 10:31:45;;;;;;;37.45;13.02;;;;;;;5.36;100.00;98068.13;4484986;31;20141;-77
2022/11/24 10:34:17;;;;;;;30.52;12.73;;;;;;;5.43;100.00;98069.28;4479489;32;20096;-76
2022/11/24 10:36:53;;;;;;;28.48;11.35;;;;;;;5.64;100.00;98066.75;4480192;32;20152;-77
2022/11/24 10:39:47;;;;;;;25.77;11.18;;;;;;;5.54;100.00;98078.00;4480932;32;20123;-80
2022/11/24 10:42:17;;;;;;;32.80;12.57;;;;;;;5.54;100.00;98081.44;4446700;32;20588;-82
2022/11/24 10:44:45;;;;;;;31.90;11.75;;;;;;;5.48;100.00;98084.50;4446639;32;20184;-78
2022/11/24 10:47:21;;;;;;;37.97;13.52;;;;;;;5.76;100.00;98088.31;4443816;32;20094;-78
2022/11/24 10:49:55;;;;;;;34.90;13.77;;;;;;;5.89;100.00;98082.13;4446445;32;20567;-81
2022/11/24 10:52:24;;;;;;;29.05;11.65;;;;;;;5.87;100.00;98090.06;4439402;32;20096;-80
2022/11/24 10:54:59;;;;;;;35.40;14.55;;;;;;;5.91;100.00;98095.84;4431718;32;20105;-81
2022/11/24 10:57:32;;;;;;;33.30;12.80;;;;;;;5.96;100.00;98098.88;4447572;32;20421;-81
2022/11/24 11:00:03;;;;;;;31.33;12.93;;;;;;;6.09;100.00;98099.56;4449280;32;20116;-82
2022/11/24 11:02:38;;;;;;;29.85;12.20;;;;;;;6.37;100.00;98092.09;4439911;32;20173;-81
2022/11/24 11:05:26;;;;;;;32.75;12.82;;;;;;;6.37;100.00;98085.12;4435573;32;20175;-82
2022/11/24 11:08:15;;;;;;;30.30;12.02;;;;;;;6.35;100.00;98099.22;4444963;32;20113;-80
2022/11/24 11:10:43;;;;;;;31.70;11.48;;;;;;;6.45;100.00;98102.72;4438995;32;20163;-79
2022/11/24 11:13:30;;;;;;;28.92;12.95;;;;;;;6.37;100.00;98110.31;4431453;32;20139;-80
2022/11/24 11:15:58;;;;;;;27.65;11.27;;;;;;;6.38;100.00;98107.56;4449265;32;20121;-81
2022/11/24 11:18:32;;;;;;;28.35;11.52;;;;;;;6.44;100.00;98105.44;4439816;32;20508;-79
2022/11/24 11:21:01;;;;;;;29.67;11.88;;;;;;;6.27;100.00;98102.44;4481928;32;20100;-76
2022/11/24 11:23:30;;;;;;;26.70;10.63;;;;;;;6.20;100.00;98120.31;4481343;32;20131;-78
2022/11/24 11:26:23;;;;;;;22.70;10.43;;;;;;;6.22;100.00;98112.38;4482030;31;20088;-82
2022/11/24 11:29:00;;;;;;;22.23;10.20;;;;;;;6.09;100.00;98107.38;4482793;31;20107;-79
2022/11/24 11:32:15;;;;;;;22.40;10.65;;;;;;;6.12;100.00;98114.12;4479588;32;20157;-78
2022/11/24 11:35:02;;;;;;;21.80;9.25;;;;;;;6.21;100.00;98115.97;4470584;32;20109;-77
2022/11/24 11:37:31;;;;;;;22.08;9.88;;;;;;;6.11;100.00;98118.47;4475676;32;20089;-75